Time;durP1;ratioP1;P1;durP2;ratioP2;P2;SDS_P1;SDS_P2;PMS_P1;PMS_P2;Temp;Humidity;BMP_temperature;BMP_pressure;BME280_temperature;BME280_humidity;BME280_pressure;Samples;Min_cycle;Max_cycle;Signal;HPM_P1;HPM_P2
2022/04/17 00:02:01;;;;;;;;;;;15.70;56.30;;;;;;5100966;28;19930;-67
2022/04/17 00:04:27;;;;;;;;;;;15.70;56.30;;;;;;5102006;28;19967;-67
2022/04/17 00:06:53;;;;;;;;;;;15.70;56.40;;;;;;5102046;28;19907;-67
2022/04/17 00:09:19;;;;;;;;;;;15.70;57.00;;;;;;5101981;28;20100;-67
2022/04/17 00:11:45;;;;;;;;;;;15.70;56.40;;;;;;5101950;28;20136;-68
2022/04/17 00:14:10;;;;;;;;;;;15.70;56.40;;;;;;5101850;28;19908;-68
2022/04/17 00:16:36;;;;;;;;;;;15.70;56.40;;;;;;5101864;28;19969;-66
2022/04/17 00:19:02;;;;;;;;;;;15.70;56.50;;;;;;5101847;28;19962;-67
2022/04/17 00:21:28;;;;;;;;;;;15.60;56.50;;;;;;5101747;28;19904;-67
2022/04/17 00:23:53;;;;;;;;;;;15.70;56.40;;;;;;5101213;28;19942;-67
2022/04/17 00:26:19;;;;;;;;;;;15.70;56.50;;;;;;5101656;28;20103;-67
2022/04/17 00:28:44;;;;;;;;;;;15.70;56.40;;;;;;5101639;28;19900;-67
2022/04/17 00:31:10;;;;;;;;;;;15.70;56.40;;;;;;5101556;28;19937;-67
2022/04/17 00:33:36;;;;;;;;;;;15.70;56.40;;;;;;5101501;28;20219;-67
2022/04/17 00:36:01;;;;;;;;;;;15.60;56.40;;;;;;5101522;28;19907;-67
2022/04/17 00:38:27;;;;;;;;;;;15.60;57.10;;;;;;5101454;28;19963;-67
2022/04/17 00:40:54;;;;;;;;;;;15.70;56.40;;;;;;5101410;28;19900;-66
2022/04/17 00:43:23;;;;;;;;;;;15.70;56.40;;;;;;5101355;28;20188;-66
2022/04/17 00:45:49;;;;;;;;;;;15.60;56.40;;;;;;5101264;28;19908;-67
2022/04/17 00:48:14;;;;;;;;;;;15.60;56.40;;;;;;5101289;28;19942;-67
2022/04/17 00:50:40;;;;;;;;;;;15.60;56.40;;;;;;5101203;28;19915;-66
2022/04/17 00:53:06;;;;;;;;;;;15.60;56.40;;;;;;5101207;28;19915;-68
2022/04/17 00:55:31;;;;;;;;;;;15.60;56.50;;;;;;5101088;28;19985;-66
2022/04/17 00:57:59;;;;;;;;;;;15.60;56.50;;;;;;5101112;28;19904;-67
2022/04/17 01:00:24;;;;;;;;;;;15.60;56.50;;;;;;5101064;28;20112;-66
2022/04/17 01:02:50;;;;;;;;;;;15.60;56.40;;;;;;5100982;28;19912;-67
2022/04/17 01:05:15;;;;;;;;;;;15.60;56.40;;;;;;5101016;28;19939;-67
2022/04/17 01:07:41;;;;;;;;;;;15.60;56.50;;;;;;5100966;28;19908;-67
2022/04/17 01:10:07;;;;;;;;;;;15.60;56.40;;;;;;5100857;28;19907;-68
2022/04/17 01:12:35;;;;;;;;;;;15.60;56.50;;;;;;5100884;28;19900;-67
2022/04/17 01:15:02;;;;;;;;;;;15.60;56.50;;;;;;5100865;28;19916;-67
2022/04/17 01:17:28;;;;;;;;;;;15.60;56.40;;;;;;5100710;28;19945;-67
2022/04/17 01:19:53;;;;;;;;;;;15.50;56.40;;;;;;5100816;28;19939;-67
2022/04/17 01:22:22;;;;;;;;;;;15.50;56.50;;;;;;5100700;28;19929;-68
2022/04/17 01:27:34;;;;;;;;;;;15.50;56.40;;;;;;5100703;28;19907;-66
2022/04/17 01:30:00;;;;;;;;;;;15.60;56.40;;;;;;5100603;28;19983;-67
2022/04/17 01:32:25;;;;;;;;;;;15.60;56.40;;;;;;5100640;28;19908;-66
2022/04/17 01:34:52;;;;;;;;;;;15.50;56.40;;;;;;5100539;28;19900;-67
2022/04/17 01:37:20;;;;;;;;;;;15.60;56.40;;;;;;5099741;28;19939;-66
2022/04/17 01:39:46;;;;;;;;;;;15.60;56.40;;;;;;5100533;28;19908;-67
2022/04/17 01:42:12;;;;;;;;;;;15.50;56.40;;;;;;5100429;28;19974;-67
2022/04/17 01:44:38;;;;;;;;;;;15.50;56.40;;;;;;5100391;28;19938;-66
2022/04/17 01:47:04;;;;;;;;;;;15.50;56.40;;;;;;5100422;28;19912;-67
2022/04/17 01:49:30;;;;;;;;;;;15.50;56.30;;;;;;5100411;28;19907;-68
2022/04/17 01:51:56;;;;;;;;;;;15.50;56.40;;;;;;5100318;28;20198;-67
2022/04/17 01:54:23;;;;;;;;;;;15.50;56.40;;;;;;5100173;28;19916;-66
2022/04/17 01:56:49;;;;;;;;;;;15.50;56.50;;;;;;5100265;28;19973;-66
2022/04/17 01:59:15;;;;;;;;;;;15.50;56.50;;;;;;5100274;28;19900;-67
2022/04/17 02:01:41;;;;;;;;;;;15.50;56.50;;;;;;5100203;28;19975;-68
2022/04/17 02:04:07;;;;;;;;;;;15.50;56.50;;;;;;5100155;28;19904;-68
2022/04/17 02:06:33;;;;;;;;;;;15.40;56.50;;;;;;5100220;28;19899;-67
2022/04/17 02:08:59;;;;;;;;;;;15.40;56.50;;;;;;5100135;28;19908;-67
2022/04/17 02:11:25;;;;;;;;;;;15.40;56.40;;;;;;5100065;28;19985;-67
2022/04/17 02:13:51;;;;;;;;;;;15.40;56.50;;;;;;5100152;28;19908;-67
2022/04/17 02:16:20;;;;;;;;;;;15.40;56.50;;;;;;5100080;28;19980;-66
2022/04/17 02:18:46;;;;;;;;;;;15.40;56.50;;;;;;5100119;28;19934;-67
2022/04/17 02:21:13;;;;;;;;;;;15.40;56.60;;;;;;5100100;28;20166;-66
2022/04/17 02:23:40;;;;;;;;;;;15.40;56.50;;;;;;5098698;28;19903;-67
2022/04/17 02:26:06;;;;;;;;;;;15.40;56.60;;;;;;5098711;28;19907;-67
2022/04/17 02:28:34;;;;;;;;;;;15.40;56.60;;;;;;5100048;28;20167;-66
2022/04/17 02:31:03;;;;;;;;;;;15.40;56.60;;;;;;5099935;28;20403;-67
2022/04/17 02:33:29;;;;;;;;;;;15.40;56.40;;;;;;5099912;28;19908;-67
2022/04/17 02:35:55;;;;;;;;;;;15.40;56.50;;;;;;5099897;28;19908;-66
2022/04/17 02:38:20;;;;;;;;;;;15.40;56.40;;;;;;5099923;28;19914;-67
2022/04/17 02:40:46;;;;;;;;;;;15.50;56.40;;;;;;5099858;28;19983;-67
2022/04/17 02:43:11;;;;;;;;;;;15.40;56.40;;;;;;5099775;28;19992;-66
2022/04/17 02:45:37;;;;;;;;;;;15.40;56.50;;;;;;5099781;28;19961;-67
2022/04/17 02:48:03;;;;;;;;;;;15.40;56.40;;;;;;5101904;28;19936;-66
2022/04/17 02:50:28;;;;;;;;;;;15.40;56.40;;;;;;5103897;28;20301;-67
2022/04/17 02:52:57;;;;;;;;;;;15.40;56.40;;;;;;5103609;28;20006;-67
2022/04/17 02:55:23;;;;;;;;;;;15.30;56.50;;;;;;5103412;28;19912;-66
2022/04/17 02:57:49;;;;;;;;;;;15.30;56.50;;;;;;5103594;28;20362;-66
2022/04/17 03:00:15;;;;;;;;;;;15.40;56.50;;;;;;5103447;28;19900;-67
2022/04/17 03:08:00;;;;;;;;;;;15.40;56.40;;;;;;5103650;28;19900;-67
2022/04/17 03:10:25;;;;;;;;;;;15.30;56.40;;;;;;5103642;28;19908;-67
2022/04/17 03:12:51;;;;;;;;;;;15.30;56.50;;;;;;5103220;28;19922;-67
2022/04/17 03:15:17;;;;;;;;;;;15.30;56.50;;;;;;5103215;28;20187;-66
2022/04/17 03:17:42;;;;;;;;;;;15.30;56.50;;;;;;5103185;28;20188;-67
2022/04/17 03:20:08;;;;;;;;;;;15.30;56.50;;;;;;5103086;28;19939;-66
2022/04/17 03:22:34;;;;;;;;;;;15.30;56.60;;;;;;5103035;28;19934;-67
2022/04/17 03:25:00;;;;;;;;;;;15.30;56.60;;;;;;5102997;28;20220;-67
2022/04/17 03:27:28;;;;;;;;;;;15.20;56.50;;;;;;5103028;28;20124;-67
2022/04/17 03:29:54;;;;;;;;;;;15.20;56.60;;;;;;5102991;28;19904;-66
2022/04/17 03:32:19;;;;;;;;;;;15.30;56.60;;;;;;5102808;28;19906;-66
2022/04/17 03:34:45;;;;;;;;;;;15.20;56.60;;;;;;5102808;28;20180;-67
2022/04/17 03:37:11;;;;;;;;;;;15.20;56.60;;;;;;5102779;28;19983;-66
2022/04/17 03:39:36;;;;;;;;;;;15.20;56.60;;;;;;5102689;28;19900;-66
2022/04/17 03:42:02;;;;;;;;;;;15.20;56.60;;;;;;5102641;28;19938;-66
2022/04/17 03:44:27;;;;;;;;;;;15.20;56.60;;;;;;5102540;28;19919;-67
2022/04/17 03:46:53;;;;;;;;;;;15.20;56.50;;;;;;5102608;28;19900;-66
2022/04/17 03:49:19;;;;;;;;;;;15.20;56.50;;;;;;5102474;28;19908;-66
2022/04/17 03:51:44;;;;;;;;;;;15.30;56.50;;;;;;5102528;28;19974;-67
2022/04/17 03:54:10;;;;;;;;;;;15.20;56.60;;;;;;5102184;28;20166;-67
2022/04/17 03:56:35;;;;;;;;;;;15.20;56.50;;;;;;5102058;28;19912;-67
2022/04/17 03:59:04;;;;;;;;;;;15.20;56.50;;;;;;5101471;28;19900;-66
2022/04/17 04:01:29;;;;;;;;;;;15.20;56.60;;;;;;5102317;28;19930;-67
2022/04/17 04:03:55;;;;;;;;;;;15.20;56.60;;;;;;5102215;28;20395;-67
2022/04/17 04:06:21;;;;;;;;;;;15.20;56.60;;;;;;5102173;28;19964;-67
2022/04/17 04:08:48;;;;;;;;;;;15.20;56.60;;;;;;5100948;28;19907;-66
2022/04/17 04:11:14;;;;;;;;;;;15.20;56.50;;;;;;5101980;28;19908;-66
2022/04/17 04:13:42;;;;;;;;;;;15.20;56.60;;;;;;5101963;28;19937;-67
2022/04/17 04:16:07;;;;;;;;;;;15.20;56.50;;;;;;5101956;28;19907;-67
2022/04/17 04:18:33;;;;;;;;;;;15.20;56.50;;;;;;5101991;28;19966;-67
2022/04/17 04:20:59;;;;;;;;;;;15.20;56.50;;;;;;5101808;28;19930;-66
2022/04/17 04:23:24;;;;;;;;;;;15.20;56.40;;;;;;5101817;28;20131;-66
2022/04/17 04:25:50;;;;;;;;;;;15.20;56.50;;;;;;5101840;28;19915;-67
2022/04/17 04:28:34;;;;;;;;;;;15.20;56.50;;;;;;5101727;28;19908;-67
2022/04/17 04:31:00;;;;;;;;;;;15.20;56.50;;;;;;5101731;28;19900;-67
2022/04/17 04:33:25;;;;;;;;;;;15.20;56.40;;;;;;5101667;28;20020;-67
2022/04/17 04:35:51;;;;;;;;;;;15.20;56.40;;;;;;5101652;28;19900;-66
2022/04/17 04:38:17;;;;;;;;;;;15.20;56.40;;;;;;5101498;28;19961;-67
2022/04/17 04:40:43;;;;;;;;;;;15.20;56.50;;;;;;5101561;28;19900;-66
2022/04/17 04:43:08;;;;;;;;;;;15.20;56.40;;;;;;5101349;28;19916;-66
2022/04/17 04:49:29;;;;;;;;;;;15.20;56.40;;;;;;5101338;28;19938;-67
2022/04/17 04:51:04;;;;;;;;;;;15.20;56.50;;;;;;5101280;28;19935;-66
2022/04/17 04:53:29;;;;;;;;;;;15.20;56.40;;;;;;5101254;28;20204;-66
2022/04/17 04:55:55;;;;;;;;;;;15.20;56.40;;;;;;5101116;28;20238;-67
2022/04/17 04:58:20;;;;;;;;;;;15.20;56.40;;;;;;5101184;28;19908;-67
2022/04/17 05:00:46;;;;;;;;;;;15.10;56.40;;;;;;5101167;28;19975;-67
2022/04/17 05:03:11;;;;;;;;;;;15.20;56.40;;;;;;5101069;28;19904;-67
2022/04/17 05:05:37;;;;;;;;;;;15.20;56.30;;;;;;5099765;28;19900;-67
2022/04/17 05:08:03;;;;;;;;;;;15.20;56.30;;;;;;5101055;28;19967;-66
2022/04/17 05:10:28;;;;;;;;;;;15.20;56.30;;;;;;5100864;28;20259;-67
2022/04/17 05:12:54;;;;;;;;;;;15.20;56.20;;;;;;5100953;28;20187;-66
2022/04/17 05:15:21;;;;;;;;;;;15.20;56.30;;;;;;5100861;28;19907;-67
2022/04/17 05:17:47;;;;;;;;;;;15.20;56.30;;;;;;5100818;28;19926;-66
2022/04/17 05:20:15;;;;;;;;;;;15.20;56.30;;;;;;5100695;28;19900;-66
2022/04/17 05:22:40;;;;;;;;;;;15.20;56.20;;;;;;5100638;28;19912;-67
2022/04/17 05:25:06;;;;;;;;;;;15.20;56.30;;;;;;5100675;28;19918;-65
2022/04/17 05:27:32;;;;;;;;;;;15.10;56.30;;;;;;5100655;28;19946;-66
2022/04/17 05:29:57;;;;;;;;;;;15.20;56.30;;;;;;5100548;28;19942;-67
2022/04/17 05:32:23;;;;;;;;;;;15.20;56.20;;;;;;5100592;28;19900;-66
2022/04/17 05:34:49;;;;;;;;;;;15.20;56.20;;;;;;5100466;28;19907;-68
2022/04/17 05:37:15;;;;;;;;;;;15.20;56.20;;;;;;5100488;28;20394;-67
2022/04/17 05:39:41;;;;;;;;;;;15.20;56.10;;;;;;5100339;28;20222;-67
2022/04/17 05:42:07;;;;;;;;;;;15.20;56.20;;;;;;5100317;28;19966;-67
2022/04/17 05:44:34;;;;;;;;;;;15.20;56.20;;;;;;5100304;28;19911;-66
2022/04/17 05:47:00;;;;;;;;;;;15.20;56.20;;;;;;5100590;28;19985;-67
2022/04/17 05:49:26;;;;;;;;;;;15.20;56.20;;;;;;5100214;28;20130;-67
2022/04/17 05:51:53;;;;;;;;;;;15.20;56.10;;;;;;5100297;28;19900;-66
2022/04/17 05:54:18;;;;;;;;;;;15.20;56.10;;;;;;5100066;28;20099;-68
2022/04/17 05:56:44;;;;;;;;;;;15.30;56.10;;;;;;5100281;28;19931;-67
2022/04/17 05:59:09;;;;;;;;;;;15.20;55.90;;;;;;5100154;28;19900;-67
2022/04/17 06:01:35;;;;;;;;;;;15.20;55.90;;;;;;5100183;28;19915;-67
2022/04/17 06:04:04;;;;;;;;;;;15.20;55.90;;;;;;5100056;28;19911;-67
2022/04/17 06:06:29;;;;;;;;;;;15.20;55.90;;;;;;5100032;28;19946;-66
2022/04/17 06:08:55;;;;;;;;;;;15.20;55.90;;;;;;5099993;28;19908;-66
2022/04/17 06:11:20;;;;;;;;;;;15.20;55.90;;;;;;5100049;28;19908;-68
2022/04/17 06:13:46;;;;;;;;;;;15.20;55.80;;;;;;5100039;28;19946;-66
2022/04/17 06:16:11;;;;;;;;;;;15.30;55.80;;;;;;5099969;28;19904;-67
2022/04/17 06:18:37;;;;;;;;;;;15.30;55.60;;;;;;5099910;28;19931;-66
2022/04/17 06:21:02;;;;;;;;;;;15.30;55.70;;;;;;5099910;28;19938;-67
2022/04/17 06:23:28;;;;;;;;;;;15.30;55.70;;;;;;5102454;28;19945;-67
2022/04/17 06:25:54;;;;;;;;;;;15.30;55.60;;;;;;5104051;28;20192;-67
2022/04/17 06:28:19;;;;;;;;;;;15.30;55.50;;;;;;5103975;28;19907;-66
2022/04/17 06:30:45;;;;;;;;;;;15.30;55.50;;;;;;5103911;28;19908;-67
2022/04/17 06:33:10;;;;;;;;;;;15.30;55.60;;;;;;5103909;28;20142;-66
2022/04/17 06:35:36;;;;;;;;;;;15.30;55.60;;;;;;5103893;28;19966;-67
2022/04/17 06:38:02;;;;;;;;;;;15.30;55.70;;;;;;5103816;28;19938;-67
2022/04/17 06:40:29;;;;;;;;;;;15.30;55.60;;;;;;5103717;28;19900;-66
2022/04/17 06:42:56;;;;;;;;;;;15.30;55.60;;;;;;5103661;28;19953;-66
2022/04/17 06:45:22;;;;;;;;;;;15.30;55.60;;;;;;5103640;28;20203;-66
2022/04/17 06:47:47;;;;;;;;;;;15.30;55.50;;;;;;5103574;28;19971;-67
2022/04/17 06:50:14;;;;;;;;;;;15.30;55.60;;;;;;5103611;28;19900;-67
2022/04/17 06:52:40;;;;;;;;;;;15.30;55.50;;;;;;5103533;28;19900;-67
2022/04/17 06:55:05;;;;;;;;;;;15.30;55.60;;;;;;5103375;28;19920;-67
2022/04/17 06:57:32;;;;;;;;;;;15.30;55.60;;;;;;5103655;28;20069;-67
2022/04/17 06:59:58;;;;;;;;;;;15.30;55.60;;;;;;5103567;28;19959;-67
2022/04/17 07:02:25;;;;;;;;;;;15.30;55.60;;;;;;5103312;28;19911;-67
2022/04/17 07:04:50;;;;;;;;;;;15.30;55.50;;;;;;5103611;28;19908;-66
2022/04/17 07:07:16;;;;;;;;;;;15.30;55.50;;;;;;5103294;28;19930;-67
2022/04/17 07:09:41;;;;;;;;;;;15.30;55.50;;;;;;5103219;28;19900;-67
2022/04/17 07:12:07;;;;;;;;;;;15.30;55.40;;;;;;5103372;28;19900;-67
2022/04/17 07:14:33;;;;;;;;;;;15.30;55.40;;;;;;5103110;28;19900;-67
2022/04/17 07:16:58;;;;;;;;;;;15.40;55.40;;;;;;5103062;28;19908;-67
2022/04/17 07:19:24;;;;;;;;;;;15.40;55.40;;;;;;5103069;28;19915;-66
2022/04/17 07:21:50;;;;;;;;;;;15.40;55.40;;;;;;5102942;28;19900;-66
2022/04/17 07:24:16;;;;;;;;;;;15.40;55.30;;;;;;5102867;28;19911;-66
2022/04/17 07:26:41;;;;;;;;;;;15.40;55.30;;;;;;5101603;28;20160;-66
2022/04/17 07:29:07;;;;;;;;;;;15.40;55.40;;;;;;5102714;28;19900;-67
2022/04/17 07:31:33;;;;;;;;;;;15.40;55.40;;;;;;5102961;28;19970;-67
2022/04/17 07:33:58;;;;;;;;;;;15.40;55.40;;;;;;5101388;28;20150;-66
2022/04/17 07:36:24;;;;;;;;;;;15.40;55.30;;;;;;5102732;28;19907;-66
2022/04/17 07:38:49;;;;;;;;;;;15.40;55.30;;;;;;5102808;28;20422;-66
2022/04/17 07:41:15;;;;;;;;;;;15.40;55.30;;;;;;5102565;28;19938;-68
2022/04/17 07:43:41;;;;;;;;;;;15.40;55.30;;;;;;5102457;28;20107;-67
2022/04/17 07:46:06;;;;;;;;;;;15.40;55.30;;;;;;5102436;28;20301;-67
2022/04/17 07:48:32;;;;;;;;;;;15.50;55.30;;;;;;5102471;28;19900;-66
2022/04/17 07:50:57;;;;;;;;;;;15.50;55.30;;;;;;5102366;28;19949;-66
2022/04/17 07:53:23;;;;;;;;;;;15.40;55.20;;;;;;5102408;28;20146;-66
2022/04/17 07:55:49;;;;;;;;;;;15.40;55.20;;;;;;5102064;28;19959;-67
2022/04/17 07:58:32;;;;;;;;;;;15.50;55.20;;;;;;5102282;28;19973;-67
2022/04/17 08:00:57;;;;;;;;;;;15.50;55.20;;;;;;5102188;28;19900;-67
2022/04/17 08:03:45;;;;;;;;;;;15.50;55.20;;;;;;5102300;28;19938;-67
2022/04/17 08:06:15;;;;;;;;;;;15.50;55.20;;;;;;5102296;28;19935;-67
2022/04/17 08:08:40;;;;;;;;;;;15.50;55.20;;;;;;5101977;28;19908;-67
2022/04/17 08:11:07;;;;;;;;;;;15.50;55.30;;;;;;5102034;28;20182;-66
2022/04/17 08:13:33;;;;;;;;;;;15.50;55.30;;;;;;5101971;28;19906;-67
2022/04/17 08:15:59;;;;;;;;;;;15.40;55.20;;;;;;5101859;28;19908;-67
2022/04/17 08:18:24;;;;;;;;;;;15.40;55.30;;;;;;5102129;28;20092;-67
2022/04/17 08:20:50;;;;;;;;;;;15.40;55.30;;;;;;5101919;28;19908;-66
2022/04/17 08:23:16;;;;;;;;;;;15.50;55.30;;;;;;5101596;28;19911;-67
2022/04/17 08:25:42;;;;;;;;;;;15.50;55.30;;;;;;5101689;28;19962;-67
2022/04/17 08:28:08;;;;;;;;;;;15.50;55.30;;;;;;5101642;28;20246;-67
2022/04/17 08:30:34;;;;;;;;;;;15.50;55.30;;;;;;5101701;28;19908;-67
2022/04/17 08:33:00;;;;;;;;;;;15.50;55.40;;;;;;5101535;28;20069;-66
2022/04/17 08:35:26;;;;;;;;;;;15.50;55.30;;;;;;5101479;28;19915;-67
2022/04/17 08:37:52;;;;;;;;;;;15.50;55.90;;;;;;5101409;28;19900;-67
2022/04/17 08:40:18;;;;;;;;;;;15.40;55.30;;;;;;5101408;28;19935;-67
2022/04/17 08:42:44;;;;;;;;;;;15.50;55.40;;;;;;5101351;28;19934;-67
2022/04/17 08:45:10;;;;;;;;;;;15.50;55.30;;;;;;5100992;28;19907;-66
2022/04/17 08:47:37;;;;;;;;;;;15.50;55.40;;;;;;5101358;28;19915;-68
2022/04/17 08:50:10;;;;;;;;;;;15.40;55.30;;;;;;5101282;28;19900;-67
2022/04/17 08:52:37;;;;;;;;;;;15.50;55.40;;;;;;5101227;28;19908;-67
2022/04/17 08:55:04;;;;;;;;;;;15.50;55.40;;;;;;5101036;28;19911;-66
2022/04/17 08:57:30;;;;;;;;;;;15.50;55.40;;;;;;5101099;28;19966;-66
2022/04/17 08:59:55;;;;;;;;;;;15.50;55.40;;;;;;5101105;28;19915;-67
2022/04/17 09:02:21;;;;;;;;;;;15.50;55.40;;;;;;5100973;28;19908;-68
2022/04/17 09:04:46;;;;;;;;;;;15.40;55.40;;;;;;5100955;28;20192;-66
2022/04/17 09:07:13;;;;;;;;;;;15.40;55.30;;;;;;5100929;28;19934;-66
2022/04/17 09:09:39;;;;;;;;;;;15.50;55.50;;;;;;5100869;28;19921;-67
2022/04/17 09:12:04;;;;;;;;;;;15.50;55.50;;;;;;5100835;28;19914;-67
2022/04/17 09:14:30;;;;;;;;;;;15.50;55.40;;;;;;5100846;28;19998;-67
2022/04/17 09:16:55;;;;;;;;;;;15.50;55.40;;;;;;5100702;28;19908;-67
2022/04/17 09:19:24;;;;;;;;;;;15.50;55.40;;;;;;5100684;28;19908;-67
2022/04/17 09:21:56;;;;;;;;;;;15.50;55.40;;;;;;5100696;28;20253;-66
2022/04/17 09:24:23;;;;;;;;;;;15.50;55.40;;;;;;5100547;28;19911;-68
2022/04/17 09:26:52;;;;;;;;;;;15.50;55.50;;;;;;5099413;28;19939;-67
2022/04/17 09:29:19;;;;;;;;;;;15.50;55.50;;;;;;5100514;28;19903;-66
2022/04/17 09:31:45;;;;;;;;;;;15.50;55.50;;;;;;5100533;28;19908;-67
2022/04/17 09:34:10;;;;;;;;;;;15.50;55.50;;;;;;5100398;28;19908;-67
2022/04/17 09:36:37;;;;;;;;;;;15.50;55.40;;;;;;5100420;28;19915;-67
2022/04/17 09:39:12;;;;;;;;;;;15.50;55.40;;;;;;5100403;28;19907;-66
2022/04/17 09:41:50;;;;;;;;;;;15.50;55.40;;;;;;5100365;28;19946;-67
2022/04/17 09:44:25;;;;;;;;;;;15.50;55.50;;;;;;5100257;28;19912;-67
2022/04/17 09:46:58;;;;;;;;;;;15.50;55.40;;;;;;5100324;28;19974;-66
2022/04/17 09:49:24;;;;;;;;;;;15.50;55.40;;;;;;5100348;28;19929;-67
2022/04/17 09:52:04;;;;;;;;;;;15.50;55.50;;;;;;5100216;28;19903;-67
2022/04/17 09:54:30;;;;;;;;;;;15.50;55.40;;;;;;5100133;28;19943;-68
2022/04/17 09:56:56;;;;;;;;;;;15.50;55.40;;;;;;5099536;28;20388;-66
2022/04/17 09:59:22;;;;;;;;;;;15.50;55.40;;;;;;5100175;28;19900;-66
2022/04/17 10:01:50;;;;;;;;;;;15.50;55.50;;;;;;5100123;28;19938;-67
2022/04/17 10:04:19;;;;;;;;;;;15.50;55.50;;;;;;5100082;28;20239;-67
2022/04/17 10:06:48;;;;;;;;;;;15.50;55.50;;;;;;5100082;28;19900;-66
2022/04/17 10:09:14;;;;;;;;;;;15.50;55.50;;;;;;5100125;28;19911;-66
2022/04/17 10:11:40;;;;;;;;;;;15.50;55.50;;;;;;5100060;28;19941;-67
2022/04/17 10:14:06;;;;;;;;;;;15.50;55.60;;;;;;5100069;28;19908;-66
2022/04/17 10:16:33;;;;;;;;;;;15.50;55.30;;;;;;5100023;28;19907;-66
2022/04/17 10:19:14;;;;;;;;;;;15.60;55.50;;;;;;5099939;28;19908;-67
2022/04/17 10:21:39;;;;;;;;;;;15.60;55.50;;;;;;5099916;28;19908;-67
2022/04/17 10:24:06;;;;;;;;;;;15.60;55.60;;;;;;5099811;28;20240;-66
2022/04/17 10:26:37;;;;;;;;;;;15.60;55.60;;;;;;5099909;28;20108;-66
2022/04/17 10:29:05;;;;;;;;;;;15.60;55.60;;;;;;5099898;28;20096;-67
2022/04/17 10:31:40;;;;;;;;;;;15.60;55.60;;;;;;5099872;28;19908;-67
2022/04/17 10:34:15;;;;;;;;;;;15.50;55.60;;;;;;5099891;28;20274;-67
2022/04/17 10:37:06;;;;;;;;;;;15.60;55.60;;;;;;5099888;28;19908;-67
2022/04/17 10:39:42;;;;;;;;;;;15.60;55.60;;;;;;5099832;28;19908;-67
2022/04/17 10:42:08;;;;;;;;;;;15.60;55.60;;;;;;5099781;28;19907;-67
2022/04/17 10:44:38;;;;;;;;;;;15.60;55.60;;;;;;5099776;28;19917;-67
2022/04/17 10:47:05;;;;;;;;;;;15.60;55.60;;;;;;5100348;28;19907;-66
2022/04/17 10:49:32;;;;;;;;;;;15.60;55.50;;;;;;5099775;28;19915;-67
2022/04/17 10:51:59;;;;;;;;;;;15.60;55.60;;;;;;5099681;28;19900;-67
2022/04/17 10:54:25;;;;;;;;;;;15.60;55.60;;;;;;5099444;28;19907;-67
2022/04/17 10:56:53;;;;;;;;;;;15.60;55.60;;;;;;5099913;28;20360;-67
2022/04/17 10:59:20;;;;;;;;;;;15.60;55.60;;;;;;5099625;28;20016;-67
2022/04/17 11:01:49;;;;;;;;;;;15.60;55.60;;;;;;5099618;28;19908;-68
2022/04/17 11:04:15;;;;;;;;;;;15.60;55.50;;;;;;5099525;28;19975;-67
2022/04/17 11:06:42;;;;;;;;;;;15.60;55.40;;;;;;5099608;28;19908;-67
2022/04/17 11:09:18;;;;;;;;;;;15.60;55.40;;;;;;5101463;28;19939;-66
2022/04/17 11:11:45;;;;;;;;;;;15.60;55.60;;;;;;5103606;28;19969;-67
2022/04/17 11:14:13;;;;;;;;;;;15.60;55.60;;;;;;5103173;28;19908;-67
2022/04/17 11:16:48;;;;;;;;;;;15.60;55.60;;;;;;5103172;28;20211;-67
2022/04/17 11:19:15;;;;;;;;;;;15.60;55.60;;;;;;5103104;28;19971;-66
2022/04/17 11:21:42;;;;;;;;;;;15.70;55.70;;;;;;5103119;28;19908;-68
2022/04/17 11:24:08;;;;;;;;;;;15.70;55.70;;;;;;5102854;28;19912;-66
2022/04/17 11:26:58;;;;;;;;;;;15.70;55.70;;;;;;5103001;28;19999;-67
2022/04/17 11:29:40;;;;;;;;;;;15.70;55.60;;;;;;5102997;28;19900;-66
2022/04/17 11:32:17;;;;;;;;;;;15.70;55.60;;;;;;5103229;28;19908;-67
2022/04/17 11:34:44;;;;;;;;;;;15.70;55.70;;;;;;5102875;28;19900;-67
2022/04/17 11:37:09;;;;;;;;;;;15.70;55.70;;;;;;5102801;28;19900;-67
2022/04/17 11:39:38;;;;;;;;;;;15.70;55.50;;;;;;5102756;28;19908;-67
2022/04/17 11:42:05;;;;;;;;;;;15.70;55.60;;;;;;5102751;28;19946;-67
2022/04/17 11:44:32;;;;;;;;;;;15.70;55.60;;;;;;5102584;28;19994;-67
2022/04/17 11:46:57;;;;;;;;;;;15.70;55.70;;;;;;5102548;28;19907;-66
2022/04/17 11:49:24;;;;;;;;;;;15.70;55.70;;;;;;5102602;28;19900;-67
2022/04/17 11:51:49;;;;;;;;;;;15.70;55.60;;;;;;5102521;28;20234;-66
2022/04/17 11:54:30;;;;;;;;;;;15.70;55.70;;;;;;5102297;28;19921;-67
2022/04/17 11:56:57;;;;;;;;;;;15.70;55.70;;;;;;5102430;28;19919;-66
2022/04/17 11:59:23;;;;;;;;;;;15.70;55.50;;;;;;5102433;28;19906;-66
2022/04/17 12:02:08;;;;;;;;;;;15.70;55.80;;;;;;5102302;28;19912;-67
2022/04/17 12:04:34;;;;;;;;;;;15.70;55.70;;;;;;5102276;28;19949;-66
2022/04/17 12:07:00;;;;;;;;;;;15.80;55.80;;;;;;5102262;28;19900;-67
2022/04/17 12:09:26;;;;;;;;;;;15.80;55.80;;;;;;5102274;28;19908;-66
2022/04/17 12:11:51;;;;;;;;;;;15.80;55.60;;;;;;5102229;28;19975;-66
2022/04/17 12:14:26;;;;;;;;;;;15.80;55.60;;;;;;5102031;28;19911;-67
2022/04/17 12:16:52;;;;;;;;;;;15.80;55.50;;;;;;5102145;28;19900;-66
2022/04/17 12:19:18;;;;;;;;;;;15.80;55.50;;;;;;5102017;28;20335;-67
2022/04/17 12:21:43;;;;;;;;;;;15.80;55.60;;;;;;5101319;28;20141;-68
2022/04/17 12:24:09;;;;;;;;;;;15.80;55.60;;;;;;5101833;28;20204;-66
2022/04/17 12:26:34;;;;;;;;;;;15.80;55.60;;;;;;5101931;28;19900;-67
2022/04/17 12:29:00;;;;;;;;;;;15.80;55.60;;;;;;5101888;28;19912;-67
2022/04/17 12:31:26;;;;;;;;;;;15.90;55.70;;;;;;5101821;28;20307;-67
2022/04/17 12:34:05;;;;;;;;;;;15.90;55.60;;;;;;5101775;28;19900;-67
2022/04/17 12:36:30;;;;;;;;;;;15.90;55.50;;;;;;5101727;28;19908;-68
2022/04/17 12:39:02;;;;;;;;;;;15.90;55.50;;;;;;5101669;28;19975;-68
2022/04/17 12:41:30;;;;;;;;;;;15.90;55.60;;;;;;5101637;28;19907;-67
2022/04/17 12:43:55;;;;;;;;;;;16.00;55.50;;;;;;5101558;28;20003;-67
2022/04/17 12:46:25;;;;;;;;;;;16.00;55.50;;;;;;5101601;28;19949;-66
2022/04/17 12:49:11;;;;;;;;;;;16.00;55.40;;;;;;5101503;28;19908;-66
2022/04/17 12:51:40;;;;;;;;;;;16.00;55.30;;;;;;5101471;28;19934;-67
2022/04/17 12:54:12;;;;;;;;;;;16.00;55.30;;;;;;5101224;28;19908;-67
2022/04/17 12:56:38;;;;;;;;;;;16.00;55.10;;;;;;5101332;28;19911;-67
2022/04/17 12:59:04;;;;;;;;;;;16.00;54.90;;;;;;5101393;28;19978;-67
2022/04/17 13:01:31;;;;;;;;;;;16.00;55.10;;;;;;5101341;28;20008;-66
2022/04/17 13:04:06;;;;;;;;;;;16.10;55.40;;;;;;5101140;28;19911;-66
2022/04/17 13:06:31;;;;;;;;;;;16.10;55.20;;;;;;5101207;28;19993;-66
2022/04/17 13:09:16;;;;;;;;;;;16.10;55.30;;;;;;5101021;28;19900;-67
2022/04/17 13:11:53;;;;;;;;;;;16.10;55.20;;;;;;5101143;28;19982;-67
2022/04/17 13:14:20;;;;;;;;;;;16.10;55.00;;;;;;5101041;28;19944;-66
2022/04/17 13:16:47;;;;;;;;;;;16.10;55.20;;;;;;5100979;28;19908;-67
2022/04/17 13:19:12;;;;;;;;;;;16.10;55.20;;;;;;5100985;28;19942;-67
2022/04/17 13:21:38;;;;;;;;;;;16.10;55.30;;;;;;5100909;28;19908;-66
2022/04/17 13:24:04;;;;;;;;;;;16.10;55.30;;;;;;5100846;28;19912;-67
2022/04/17 13:26:29;;;;;;;;;;;16.10;55.10;;;;;;5100826;28;19904;-66
2022/04/17 13:28:55;;;;;;;;;;;16.10;55.10;;;;;;5100816;28;20372;-67
2022/04/17 13:31:20;;;;;;;;;;;16.20;55.30;;;;;;5100357;28;19908;-67
2022/04/17 13:33:46;;;;;;;;;;;16.20;55.30;;;;;;5100288;28;19914;-67
2022/04/17 13:36:11;;;;;;;;;;;16.20;55.10;;;;;;5100760;28;19942;-67
2022/04/17 13:38:37;;;;;;;;;;;16.20;54.90;;;;;;5100551;28;19966;-67
2022/04/17 13:41:04;;;;;;;;;;;16.20;55.00;;;;;;5100612;28;19907;-67
2022/04/17 13:43:30;;;;;;;;;;;16.20;55.10;;;;;;5100469;28;19904;-66
2022/04/17 13:45:57;;;;;;;;;;;16.10;55.40;;;;;;5100580;28;19914;-67
2022/04/17 13:48:24;;;;;;;;;;;16.10;55.20;;;;;;5100571;28;20203;-67
2022/04/17 13:50:50;;;;;;;;;;;16.10;55.20;;;;;;5100519;28;20251;-66
2022/04/17 13:53:15;;;;;;;;;;;16.20;55.40;;;;;;5100752;28;19908;-67
2022/04/17 13:55:41;;;;;;;;;;;16.20;55.20;;;;;;5100346;28;20230;-67
2022/04/17 13:58:06;;;;;;;;;;;16.30;55.10;;;;;;5100455;28;19921;-67
2022/04/17 14:00:32;;;;;;;;;;;16.30;55.10;;;;;;5100468;28;19942;-66
2022/04/17 14:02:58;;;;;;;;;;;16.40;55.00;;;;;;5099091;28;19911;-67
2022/04/17 14:05:23;;;;;;;;;;;16.40;54.80;;;;;;5100377;28;19915;-67
2022/04/17 14:07:49;;;;;;;;;;;16.50;54.70;;;;;;5100291;28;19915;-67
2022/04/17 14:10:15;;;;;;;;;;;16.50;54.60;;;;;;5100310;28;19919;-67
2022/04/17 14:12:40;;;;;;;;;;;16.50;54.70;;;;;;5100246;28;20101;-66
2022/04/17 14:15:07;;;;;;;;;;;16.50;54.80;;;;;;5100285;28;19908;-67
2022/04/17 14:17:32;;;;;;;;;;;16.40;54.80;;;;;;5100352;28;20188;-67
2022/04/17 14:19:58;;;;;;;;;;;16.40;54.80;;;;;;5100249;28;19900;-67
2022/04/17 14:22:24;;;;;;;;;;;16.40;54.90;;;;;;5100324;28;19908;-67
2022/04/17 14:24:52;;;;;;;;;;;16.40;54.80;;;;;;5100126;28;19904;-68
2022/04/17 14:27:21;;;;;;;;;;;16.50;54.70;;;;;;5100143;28;19900;-66